createdAt,value
2023-04-22T00:00:09.027Z,68.33
2023-04-22T00:02:37.300Z,67.85
2023-04-22T00:05:06.831Z,68.09
2023-04-22T00:07:34.161Z,67.72
2023-04-22T00:10:01.115Z,67.48
2023-04-22T00:12:28.047Z,67.61
2023-04-22T00:14:55.029Z,67.29
2023-04-22T00:17:22.019Z,67.00
2023-04-22T00:19:48.955Z,67.41
2023-04-22T00:22:15.915Z,67.02
2023-04-22T00:24:42.951Z,66.78
2023-04-22T00:27:09.987Z,66.97
2023-04-22T00:29:37.339Z,67.37
2023-04-22T00:32:04.629Z,66.94
2023-04-22T00:34:31.562Z,67.01
2023-04-22T00:36:58.579Z,67.20
2023-04-22T00:39:25.703Z,67.14
2023-04-22T00:41:53.285Z,67.59
2023-04-22T00:44:20.582Z,67.43
2023-04-22T00:46:48.810Z,67.06
2023-04-22T00:49:16.805Z,67.31
2023-04-22T00:51:43.849Z,67.27
2023-04-22T00:54:10.774Z,67.61
2023-04-22T00:56:39.476Z,67.17
2023-04-22T00:59:07.168Z,67.14
2023-04-22T01:01:34.718Z,67.64
2023-04-22T01:04:03.990Z,67.42
2023-04-22T01:06:32.393Z,67.41
2023-04-22T01:08:59.526Z,67.34
2023-04-22T01:11:26.728Z,67.64
2023-04-22T01:13:53.869Z,67.19
2023-04-22T01:16:22.020Z,67.61
2023-04-22T01:18:49.151Z,67.74
2023-04-22T01:21:16.961Z,67.79
2023-04-22T01:23:43.995Z,67.25
2023-04-22T01:26:11.249Z,67.55
2023-04-22T01:28:38.592Z,67.70
2023-04-22T01:31:05.736Z,68.04
2023-04-22T01:33:33.384Z,68.08
2023-04-22T01:36:00.702Z,67.88
2023-04-22T01:38:28.799Z,67.84
2023-04-22T01:40:55.890Z,68.11
2023-04-22T01:43:23.273Z,68.10
2023-04-22T01:45:50.289Z,67.77
2023-04-22T01:48:17.426Z,67.93
2023-04-22T01:50:44.781Z,68.14
2023-04-22T01:53:14.060Z,68.06
2023-04-22T01:55:43.045Z,67.78
2023-04-22T01:58:13.238Z,67.94
2023-04-22T02:00:41.268Z,67.91
2023-04-22T02:03:08.369Z,67.96
2023-04-22T02:05:36.397Z,67.57
2023-04-22T02:08:03.581Z,67.75
2023-04-22T02:10:31.038Z,67.65
2023-04-22T02:12:59.127Z,67.62
2023-04-22T02:15:26.242Z,67.84
2023-04-22T02:17:54.759Z,67.70
2023-04-22T02:20:21.876Z,68.07
2023-04-22T02:22:50.597Z,67.91
2023-04-22T02:25:19.838Z,67.60
2023-04-22T02:27:46.788Z,68.22
2023-04-22T02:30:16.158Z,67.70
2023-04-22T02:32:43.186Z,68.22
2023-04-22T02:35:11.632Z,68.13
2023-04-22T02:37:38.959Z,67.74
2023-04-22T02:40:07.545Z,67.99
2023-04-22T02:42:35.151Z,67.99
2023-04-22T02:45:02.715Z,68.01
2023-04-22T02:47:29.945Z,67.88
2023-04-22T02:49:56.953Z,68.29
2023-04-22T02:52:23.895Z,68.03
2023-04-22T02:54:50.844Z,67.67
2023-04-22T02:57:17.783Z,67.82
2023-04-22T02:59:44.778Z,67.93
2023-04-22T03:02:14.077Z,68.00
2023-04-22T03:05:04.797Z,67.82
2023-04-22T03:07:31.815Z,68.31
2023-04-22T03:09:59.545Z,68.02
2023-04-22T03:12:26.743Z,68.04
2023-04-22T03:14:53.707Z,68.14
2023-04-22T03:17:22.746Z,68.11
2023-04-22T03:19:50.390Z,68.35
2023-04-22T03:22:17.460Z,68.39
2023-04-22T03:24:44.788Z,68.04
2023-04-22T03:27:11.889Z,67.93
2023-04-22T03:29:39.964Z,68.08
2023-04-22T03:32:07.225Z,67.58
2023-04-22T03:34:37.218Z,67.53
2023-04-22T03:37:05.460Z,67.50
2023-04-22T03:39:32.634Z,67.90
2023-04-22T03:41:59.719Z,67.61
2023-04-22T03:44:26.806Z,67.84
2023-04-22T03:46:55.460Z,67.89
2023-04-22T03:49:27.271Z,67.46
2023-04-22T03:51:55.843Z,67.70
2023-04-22T03:54:27.478Z,67.65
2023-04-22T03:56:55.735Z,67.71
2023-04-22T03:59:23.757Z,67.39
2023-04-22T04:01:52.770Z,67.58
2023-04-22T04:04:23.799Z,67.94
2023-04-22T04:06:56.466Z,67.66
2023-04-22T04:09:23.454Z,68.13
2023-04-22T04:11:50.442Z,67.62
2023-04-22T04:14:18.100Z,67.91
2023-04-22T04:16:50.309Z,67.78
2023-04-22T04:19:25.945Z,68.29
2023-04-22T04:21:52.923Z,68.22
2023-04-22T04:24:20.943Z,68.15
2023-04-22T04:26:51.132Z,68.60
2023-04-22T04:29:23.661Z,68.18
2023-04-22T04:32:04.702Z,68.28
2023-04-22T04:34:32.281Z,68.40
2023-04-22T04:36:59.521Z,68.72
2023-04-22T04:39:34.447Z,68.44
2023-04-22T04:42:03.859Z,68.10
2023-04-22T04:44:34.173Z,68.66
2023-04-22T04:47:04.148Z,68.74
2023-04-22T04:49:31.890Z,68.62
2023-04-22T04:52:01.772Z,68.67
2023-04-22T04:54:29.101Z,68.87
2023-04-22T04:56:57.477Z,68.56
2023-04-22T04:59:25.156Z,68.97
2023-04-22T05:01:52.749Z,68.86
2023-04-22T05:04:20.283Z,69.11
2023-04-22T05:06:48.151Z,68.67
2023-04-22T05:09:15.120Z,68.74
2023-04-22T05:11:43.787Z,69.23
2023-04-22T05:14:15.969Z,68.73
2023-04-22T05:16:46.038Z,69.01
2023-04-22T05:19:14.091Z,69.03
2023-04-22T05:21:42.178Z,68.70
2023-04-22T05:24:09.131Z,68.68
2023-04-22T05:26:36.524Z,68.65
2023-04-22T05:29:09.708Z,68.96
2023-04-22T05:31:36.686Z,68.69
2023-04-22T05:34:03.664Z,69.06
2023-04-22T05:36:32.007Z,69.00
2023-04-22T05:38:59.827Z,69.12
2023-04-22T05:41:27.379Z,68.94
2023-04-22T05:43:56.621Z,68.81
2023-04-22T05:46:24.400Z,68.82
2023-04-22T05:48:51.732Z,68.87
2023-04-22T05:51:37.119Z,68.90
2023-04-22T05:54:04.551Z,68.41
2023-04-22T05:56:31.745Z,68.24
2023-04-22T05:58:58.712Z,68.68
2023-04-22T06:01:26.513Z,68.57
2023-04-22T06:03:58.963Z,68.68
2023-04-22T06:06:27.369Z,68.70
2023-04-22T06:08:54.375Z,68.61
2023-04-22T06:11:22.338Z,68.51
2023-04-22T06:13:49.338Z,68.89
2023-04-22T06:16:16.930Z,68.69
2023-04-22T06:18:43.926Z,69.35
2023-04-22T06:21:12.509Z,69.08
2023-04-22T06:23:40.440Z,69.14
2023-04-22T06:26:07.407Z,68.73
2023-04-22T06:28:35.972Z,69.29
2023-04-22T06:31:07.892Z,69.29
2023-04-22T06:33:35.775Z,69.22
2023-04-22T06:36:04.758Z,68.76
2023-04-22T06:38:31.703Z,68.86
2023-04-22T06:41:19.009Z,68.67
2023-04-22T06:43:49.752Z,68.71
2023-04-22T06:46:17.679Z,68.73
2023-04-22T06:49:03.411Z,68.46
2023-04-22T06:51:30.958Z,68.31
2023-04-22T06:53:58.498Z,68.05
2023-04-22T06:56:25.935Z,68.48
2023-04-22T06:58:52.927Z,68.24
2023-04-22T07:01:20.043Z,68.44
2023-04-22T07:03:47.540Z,68.29
2023-04-22T07:06:15.355Z,68.49
2023-04-22T07:08:42.456Z,68.16
2023-04-22T07:11:12.457Z,68.45
2023-04-22T07:13:46.720Z,68.31
2023-04-22T07:16:13.738Z,68.17
2023-04-22T07:18:40.736Z,68.13
2023-04-22T07:21:07.673Z,68.04
2023-04-22T07:23:34.620Z,68.43
2023-04-22T07:26:01.773Z,68.44
2023-04-22T07:28:28.721Z,67.97
2023-04-22T07:30:55.681Z,68.19
2023-04-22T07:33:22.761Z,68.24
2023-04-22T07:35:49.986Z,68.27
2023-04-22T07:38:17.493Z,68.67
2023-04-22T07:40:44.485Z,68.53
2023-04-22T07:43:11.412Z,68.18
2023-04-22T07:45:38.453Z,68.60
2023-04-22T07:48:05.531Z,69.10
2023-04-22T07:50:32.555Z,68.71
2023-04-22T07:52:59.536Z,68.37
2023-04-22T07:55:26.500Z,68.14
2023-04-22T07:57:53.450Z,68.48
2023-04-22T08:00:20.362Z,67.99
2023-04-22T08:02:47.545Z,68.41
2023-04-22T08:05:14.657Z,67.71
2023-04-22T08:07:41.924Z,68.40
2023-04-22T08:10:09.620Z,67.78
2023-04-22T08:12:37.574Z,67.87
2023-04-22T08:15:05.120Z,67.88
2023-04-22T08:17:32.352Z,67.69
2023-04-22T08:19:59.308Z,67.98
2023-04-22T08:22:27.446Z,68.17
2023-04-22T08:24:54.459Z,68.35
2023-04-22T08:27:22.111Z,68.04
2023-04-22T08:29:49.181Z,68.11
2023-04-22T08:32:16.553Z,67.64
2023-04-22T08:34:44.056Z,67.85
2023-04-22T08:37:11.281Z,67.72
2023-04-22T08:39:38.651Z,67.36
2023-04-22T08:42:05.926Z,67.34
2023-04-22T08:44:34.922Z,67.80
2023-04-22T08:47:03.199Z,67.49
2023-04-22T08:49:31.075Z,67.88
2023-04-22T08:51:58.031Z,68.04
2023-04-22T08:54:24.995Z,68.00
2023-04-22T08:56:52.332Z,67.15
2023-04-22T08:59:22.301Z,66.54
2023-04-22T09:01:56.116Z,67.53
2023-04-22T09:04:23.402Z,68.01
2023-04-22T09:06:50.337Z,67.50
2023-04-22T09:09:17.344Z,68.33
2023-04-22T09:11:44.380Z,67.59
2023-04-22T09:14:11.344Z,68.09
2023-04-22T09:16:44.760Z,66.97
2023-04-22T09:19:13.133Z,67.32
2023-04-22T09:21:41.405Z,66.64
2023-04-22T09:24:12.377Z,66.72
2023-04-22T09:26:41.958Z,66.07
2023-04-22T09:29:14.650Z,66.82
2023-04-22T09:31:41.805Z,66.94
2023-04-22T09:34:12.184Z,67.50
2023-04-22T09:36:39.376Z,66.24
2023-04-22T09:39:08.194Z,67.19
2023-04-22T09:41:40.017Z,65.52
2023-04-22T09:44:20.520Z,64.66
2023-04-22T09:46:51.047Z,64.90
2023-04-22T09:49:18.083Z,63.68
2023-04-22T09:51:45.045Z,66.01
2023-04-22T09:54:12.182Z,65.38
2023-04-22T09:56:48.157Z,65.91
2023-04-22T09:59:29.490Z,66.60
2023-04-22T10:02:00.728Z,62.74
2023-04-22T10:04:28.380Z,63.60
2023-04-22T10:06:56.164Z,62.51
2023-04-22T10:09:24.975Z,63.67
2023-04-22T10:11:55.575Z,64.64
2023-04-22T10:14:22.710Z,63.40
2023-04-22T10:16:56.604Z,62.59
2023-04-22T10:19:26.011Z,63.14
2023-04-22T10:21:57.657Z,63.20
2023-04-22T10:24:34.185Z,59.69
2023-04-22T10:27:10.573Z,60.32
2023-04-22T10:29:40.834Z,59.75
2023-04-22T10:32:11.590Z,58.56
2023-04-22T10:34:39.664Z,58.64
2023-04-22T10:37:11.487Z,54.95
2023-04-22T10:39:42.826Z,58.67
2023-04-22T10:42:13.172Z,56.37
2023-04-22T10:44:53.659Z,58.54
2023-04-22T10:47:37.901Z,59.37
2023-04-22T10:50:24.000Z,59.15
2023-04-22T10:53:19.912Z,60.98
2023-04-22T10:55:54.057Z,59.59
2023-04-22T10:58:23.894Z,61.13
2023-04-22T11:00:59.623Z,61.77
2023-04-22T11:03:30.716Z,63.00
2023-04-22T11:06:18.619Z,58.25
2023-04-22T11:08:47.443Z,62.31
2023-04-22T11:11:16.514Z,62.54
2023-04-22T11:13:44.022Z,61.70
2023-04-22T11:16:11.329Z,59.25
2023-04-22T11:18:38.701Z,60.07
2023-04-22T11:21:08.386Z,56.03
2023-04-22T11:23:36.638Z,56.43
2023-04-22T11:26:06.933Z,53.53
2023-04-22T11:28:33.831Z,53.46
2023-04-22T11:31:07.576Z,58.14
2023-04-22T11:33:35.002Z,57.37
2023-04-22T11:36:02.305Z,56.64
2023-04-22T11:38:29.262Z,57.64
2023-04-22T11:40:59.704Z,56.38
2023-04-22T11:43:26.818Z,54.31
2023-04-22T11:45:56.063Z,54.74
2023-04-22T11:48:23.720Z,54.67
2023-04-22T11:51:13.753Z,56.34
2023-04-22T11:53:51.249Z,56.41
2023-04-22T11:56:18.176Z,53.35
2023-04-22T11:58:45.159Z,49.56
2023-04-22T12:01:13.930Z,50.57
2023-04-22T12:03:41.090Z,50.06
2023-04-22T12:06:08.237Z,50.49
2023-04-22T12:08:42.329Z,49.61
2023-04-22T12:11:11.604Z,48.06
2023-04-22T12:13:38.386Z,51.86
2023-04-22T12:16:14.652Z,52.28
2023-04-22T12:18:49.476Z,52.77
2023-04-22T12:21:24.586Z,49.82
2023-04-22T12:23:58.833Z,48.84
2023-04-22T12:26:27.822Z,49.53
2023-04-22T12:29:00.411Z,48.54
2023-04-22T12:31:28.167Z,47.67
2023-04-22T12:33:56.321Z,47.55
2023-04-22T12:36:24.068Z,48.64
2023-04-22T12:38:51.287Z,47.47
2023-04-22T12:41:18.386Z,48.22
2023-04-22T12:43:45.300Z,48.77
2023-04-22T12:46:12.313Z,47.36
2023-04-22T12:48:39.347Z,46.88
2023-04-22T12:51:06.992Z,47.79
2023-04-22T12:53:34.702Z,48.75
2023-04-22T12:56:01.760Z,49.50
2023-04-22T12:58:28.891Z,48.13
2023-04-22T13:00:55.993Z,49.46
2023-04-22T13:03:23.163Z,50.08
2023-04-22T13:05:50.827Z,48.45
2023-04-22T13:08:17.884Z,50.92
2023-04-22T13:10:44.812Z,50.99
2023-04-22T13:15:41.620Z,50.84
2023-04-22T13:18:08.703Z,50.39
2023-04-22T13:20:36.035Z,51.13
2023-04-22T13:23:04.565Z,50.33
2023-04-22T13:25:31.729Z,50.74
2023-04-22T13:27:58.704Z,51.01
2023-04-22T13:30:25.764Z,51.09
2023-04-22T13:32:52.977Z,51.64
2023-04-22T13:35:20.040Z,51.38
2023-04-22T13:37:47.111Z,51.05
2023-04-22T13:40:14.278Z,51.17
2023-04-22T13:42:41.822Z,51.56
2023-04-22T13:45:09.520Z,50.94
2023-04-22T13:47:36.582Z,51.74
2023-04-22T13:50:05.518Z,50.15
2023-04-22T13:52:32.822Z,51.84
2023-04-22T13:55:03.207Z,51.90
2023-04-22T13:57:30.482Z,52.63
2023-04-22T13:59:57.605Z,52.10
2023-04-22T14:02:24.617Z,52.54
2023-04-22T14:04:51.963Z,51.91
2023-04-22T14:07:18.928Z,51.92
2023-04-22T14:09:45.878Z,51.51
2023-04-22T14:12:13.313Z,51.70
2023-04-22T14:14:40.277Z,52.78
2023-04-22T14:17:08.171Z,52.16
2023-04-22T14:19:38.706Z,52.67
2023-04-22T14:22:06.517Z,52.64
2023-04-22T14:24:33.638Z,53.14
2023-04-22T14:27:03.457Z,53.61
2023-04-22T14:29:30.942Z,54.10
2023-04-22T14:31:58.416Z,52.61
2023-04-22T14:34:26.904Z,53.81
2023-04-22T14:36:54.201Z,52.93
2023-04-22T14:39:21.368Z,53.74
2023-04-22T14:41:48.937Z,53.80
2023-04-22T14:44:16.529Z,54.07
2023-04-22T14:46:43.697Z,53.90
2023-04-22T14:49:10.743Z,53.80
2023-04-22T14:51:37.744Z,53.98
2023-04-22T14:54:05.175Z,53.89
2023-04-22T14:56:32.120Z,54.29
2023-04-22T14:58:59.041Z,54.07
2023-04-22T15:01:26.048Z,54.34
2023-04-22T15:03:53.325Z,54.35
2023-04-22T15:06:20.531Z,54.56
2023-04-22T15:08:47.570Z,54.63
2023-04-22T15:11:14.470Z,54.66
2023-04-22T15:13:41.453Z,54.68
2023-04-22T15:16:08.463Z,54.63
2023-04-22T15:18:35.717Z,54.89
2023-04-22T15:21:03.320Z,55.08
2023-04-22T15:23:30.350Z,55.03
2023-04-22T15:25:57.352Z,55.06
2023-04-22T15:28:24.469Z,55.03
2023-04-22T15:30:51.479Z,54.85
2023-04-22T15:33:18.461Z,55.30
2023-04-22T15:35:47.512Z,55.43
2023-04-22T15:38:14.441Z,55.41
2023-04-22T15:40:41.406Z,55.49
2023-04-22T15:43:08.471Z,55.70
2023-04-22T15:45:35.735Z,55.33
2023-04-22T15:48:03.043Z,55.74
2023-04-22T15:50:29.991Z,55.48
2023-04-22T15:52:56.982Z,55.19
2023-04-22T15:55:24.037Z,53.67
2023-04-22T15:57:51.017Z,55.16
2023-04-22T16:00:18.222Z,55.11
2023-04-22T16:02:46.395Z,54.33
2023-04-22T16:05:14.342Z,54.91
2023-04-22T16:07:41.377Z,54.88
2023-04-22T16:10:09.423Z,55.05
2023-04-22T16:12:39.240Z,54.80
2023-04-22T16:15:07.347Z,54.60
2023-04-22T16:17:34.527Z,54.74
2023-04-22T16:20:01.839Z,55.04
2023-04-22T16:22:28.810Z,55.05
2023-04-22T16:24:55.737Z,55.01
2023-04-22T16:27:22.749Z,55.25
2023-04-22T16:29:49.727Z,55.05
2023-04-22T16:32:16.652Z,55.05
2023-04-22T16:34:43.591Z,54.87
2023-04-22T16:37:10.575Z,54.89
2023-04-22T16:39:37.775Z,54.92
2023-04-22T16:42:04.856Z,54.69
2023-04-22T16:44:31.795Z,54.57
2023-04-22T16:46:58.716Z,54.82
2023-04-22T16:49:25.685Z,54.90
2023-04-22T16:51:52.845Z,54.86
2023-04-22T16:54:20.266Z,54.95
2023-04-22T16:56:47.271Z,55.10
2023-04-22T16:59:14.626Z,55.50
2023-04-22T17:01:41.984Z,55.22
2023-04-22T17:04:09.355Z,55.41
2023-04-22T17:06:39.203Z,54.98
2023-04-22T17:09:07.406Z,55.16
2023-04-22T17:11:34.354Z,55.24
2023-04-22T17:14:05.186Z,54.90
2023-04-22T17:16:32.330Z,55.07
2023-04-22T17:18:59.383Z,55.14
2023-04-22T17:21:27.077Z,55.33
2023-04-22T17:23:54.417Z,55.07
2023-04-22T17:26:21.795Z,55.17
2023-04-22T17:28:48.753Z,55.36
2023-04-22T17:31:15.769Z,55.47
2023-04-22T17:33:42.807Z,55.65
2023-04-22T17:36:09.796Z,55.41
2023-04-22T17:38:36.753Z,55.30
2023-04-22T17:41:04.182Z,55.35
2023-04-22T17:43:31.250Z,55.40
2023-04-22T17:45:58.302Z,55.15
2023-04-22T17:48:25.490Z,54.98
2023-04-22T17:50:52.599Z,54.59
2023-04-22T17:53:19.606Z,55.02
2023-04-22T17:55:46.515Z,54.91
2023-04-22T17:58:13.460Z,54.63
2023-04-22T18:00:40.504Z,54.66
2023-04-22T18:03:07.633Z,54.79
2023-04-22T18:05:34.805Z,54.64
2023-04-22T18:08:02.811Z,54.81
2023-04-22T18:10:30.766Z,53.89
2023-04-22T18:12:57.776Z,54.59
2023-04-22T18:15:24.779Z,54.21
2023-04-22T18:17:51.887Z,53.52
2023-04-22T18:20:19.666Z,53.41
2023-04-22T18:22:49.135Z,53.23
2023-04-22T18:25:16.383Z,53.70
2023-04-22T18:27:43.968Z,54.16
2023-04-22T18:30:11.216Z,54.29
2023-04-22T18:32:38.311Z,54.13
2023-04-22T18:35:06.358Z,54.13
2023-04-22T18:37:34.573Z,54.03
2023-04-22T18:40:02.437Z,54.47
2023-04-22T18:42:30.044Z,54.29
2023-04-22T18:44:57.024Z,53.81
2023-04-22T18:47:24.015Z,53.70
2023-04-22T18:49:51.171Z,54.11
2023-04-22T18:52:18.362Z,53.85
2023-04-22T18:54:45.454Z,54.00
2023-04-22T18:57:12.660Z,53.94
2023-04-22T18:59:39.719Z,54.29
2023-04-22T19:02:06.930Z,54.67
2023-04-22T19:04:34.023Z,54.67
2023-04-22T19:07:01.087Z,54.74
2023-04-22T19:09:29.023Z,54.29
2023-04-22T19:11:56.195Z,54.55
2023-04-22T19:14:23.189Z,54.52
2023-04-22T19:16:50.332Z,54.64
2023-04-22T19:19:17.799Z,54.65
2023-04-22T19:21:44.997Z,54.33
2023-04-22T19:24:14.184Z,54.52
2023-04-22T19:26:41.286Z,54.24
2023-04-22T19:29:08.647Z,54.49
2023-04-22T19:31:35.692Z,54.17
2023-04-22T19:34:03.034Z,54.33
2023-04-22T19:36:30.044Z,54.76
2023-04-22T19:38:56.975Z,54.93
2023-04-22T19:41:24.042Z,55.61
2023-04-22T19:43:51.151Z,55.80
2023-04-22T19:46:18.227Z,55.88
2023-04-22T19:48:45.649Z,55.67
2023-04-22T19:51:13.440Z,55.80
2023-04-22T19:53:41.420Z,55.42
2023-04-22T19:56:11.884Z,55.49
2023-04-22T19:58:39.546Z,55.75
2023-04-22T20:01:06.744Z,55.41
2023-04-22T20:03:34.215Z,56.16
2023-04-22T20:06:01.918Z,55.98
2023-04-22T20:08:29.345Z,56.52
2023-04-22T20:10:58.129Z,55.57
2023-04-22T20:13:25.917Z,56.34
2023-04-22T20:15:53.371Z,55.81
2023-04-22T20:18:20.508Z,55.86
2023-04-22T20:20:48.543Z,56.18
2023-04-22T20:23:17.408Z,56.52
2023-04-22T20:25:45.135Z,56.51
2023-04-22T20:28:12.569Z,56.33
2023-04-22T20:30:40.167Z,56.41
2023-04-22T20:33:07.569Z,56.37
2023-04-22T20:35:35.773Z,56.80
2023-04-22T20:38:03.443Z,56.58
2023-04-22T20:40:30.579Z,56.80
2023-04-22T20:42:58.728Z,56.66
2023-04-22T20:45:27.132Z,56.51
2023-04-22T20:47:54.211Z,56.55
2023-04-22T20:50:21.382Z,56.72
2023-04-22T20:52:48.926Z,57.14
2023-04-22T20:55:16.947Z,56.82
2023-04-22T20:57:44.222Z,57.03
2023-04-22T21:00:11.887Z,57.25
2023-04-22T21:02:40.488Z,56.99
2023-04-22T21:05:09.958Z,57.15
2023-04-22T21:07:43.250Z,57.06
2023-04-22T21:10:10.932Z,57.56
2023-04-22T21:12:38.295Z,57.45
2023-04-22T21:15:06.369Z,57.49
2023-04-22T21:17:35.146Z,57.34
2023-04-22T21:20:05.350Z,57.57
2023-04-22T21:22:32.600Z,58.20
2023-04-22T21:25:00.211Z,57.78
2023-04-22T21:27:27.574Z,58.07
2023-04-22T21:29:55.254Z,58.14
2023-04-22T21:32:22.215Z,58.31
2023-04-22T21:34:49.188Z,58.13
2023-04-22T21:37:16.218Z,58.02
2023-04-22T21:39:43.186Z,57.79
2023-04-22T21:42:10.465Z,57.91
2023-04-22T21:44:38.293Z,58.12
2023-04-22T21:47:06.265Z,58.07
2023-04-22T21:49:33.229Z,58.46
2023-04-22T21:52:00.290Z,58.45
2023-04-22T21:54:27.258Z,58.24
2023-04-22T21:56:54.222Z,58.09
2023-04-22T21:59:21.243Z,58.21
2023-04-22T22:01:48.226Z,58.45
2023-04-22T22:04:16.330Z,58.17
2023-04-22T22:06:45.295Z,58.14
2023-04-22T22:09:13.659Z,58.77
2023-04-22T22:11:40.625Z,58.41
2023-04-22T22:14:07.638Z,58.52
2023-04-22T22:16:34.854Z,58.42
2023-04-22T22:19:04.369Z,58.80
2023-04-22T22:21:32.675Z,58.29
2023-04-22T22:23:59.635Z,58.59
2023-04-22T22:26:27.131Z,58.41
2023-04-22T22:28:54.258Z,58.95
2023-04-22T22:31:21.492Z,58.63
2023-04-22T22:33:48.564Z,58.78
2023-04-22T22:36:16.129Z,58.76
2023-04-22T22:38:43.141Z,59.10
2023-04-22T22:41:10.111Z,60.62
2023-04-22T22:43:37.098Z,59.90
2023-04-22T22:46:04.173Z,60.64
2023-04-22T22:48:31.517Z,61.23
2023-04-22T22:50:58.611Z,60.49
2023-04-22T22:53:25.589Z,59.86
2023-04-22T22:55:52.555Z,60.64
2023-04-22T22:58:19.476Z,60.16
2023-04-22T23:00:46.446Z,60.07
2023-04-22T23:03:13.763Z,60.54
2023-04-22T23:05:41.052Z,60.60
2023-04-22T23:08:08.023Z,60.49
2023-04-22T23:10:34.958Z,60.39
2023-04-22T23:13:02.091Z,62.00
2023-04-22T23:15:29.294Z,63.06
2023-04-22T23:17:56.377Z,61.84
2023-04-22T23:20:24.274Z,60.99
2023-04-22T23:22:51.789Z,60.80
2023-04-22T23:25:19.069Z,61.27
2023-04-22T23:27:46.521Z,60.71
2023-04-22T23:30:13.972Z,60.39
2023-04-22T23:32:42.594Z,60.74
2023-04-22T23:35:12.531Z,60.25
2023-04-22T23:37:45.371Z,61.12
2023-04-22T23:40:13.175Z,60.35
2023-04-22T23:42:40.268Z,60.29
2023-04-22T23:45:08.114Z,60.42
2023-04-22T23:47:35.223Z,60.69
2023-04-22T23:50:03.299Z,60.61
2023-04-22T23:52:30.368Z,60.67
2023-04-22T23:54:58.053Z,60.52
2023-04-22T23:57:25.296Z,60.95
2023-04-22T23:59:52.613Z,61.48
